sensor_id;sensor_type;location;lat;lon;timestamp;temperature;humidity
53643;DHT22;39546;45.534;12.048;2023-04-21T00:03:13;14.60;84.70
53643;DHT22;39546;45.534;12.048;2023-04-21T00:09:15;14.70;84.60
53643;DHT22;39546;45.534;12.048;2023-04-21T00:15:21;14.70;84.50
53643;DHT22;39546;45.534;12.048;2023-04-21T00:21:23;14.70;84.50
53643;DHT22;39546;45.534;12.048;2023-04-21T00:27:25;14.70;84.40
53643;DHT22;39546;45.534;12.048;2023-04-21T00:33:27;14.60;84.40
53643;DHT22;39546;45.534;12.048;2023-04-21T00:39:30;14.60;84.50
53643;DHT22;39546;45.534;12.048;2023-04-21T00:45:32;14.60;84.60
53643;DHT22;39546;45.534;12.048;2023-04-21T00:51:35;14.60;84.80
53643;DHT22;39546;45.534;12.048;2023-04-21T00:57:38;14.60;84.90
53643;DHT22;39546;45.534;12.048;2023-04-21T01:03:40;14.60;84.90
53643;DHT22;39546;45.534;12.048;2023-04-21T01:09:44;14.60;84.80
53643;DHT22;39546;45.534;12.048;2023-04-21T01:15:46;14.60;84.70
53643;DHT22;39546;45.534;12.048;2023-04-21T01:21:49;14.60;84.70
53643;DHT22;39546;45.534;12.048;2023-04-21T01:28:02;14.60;84.70
53643;DHT22;39546;45.534;12.048;2023-04-21T01:34:06;14.70;84.70
53643;DHT22;39546;45.534;12.048;2023-04-21T01:40:39;14.60;84.80
53643;DHT22;39546;45.534;12.048;2023-04-21T01:53:28;14.60;84.60
53643;DHT22;39546;45.534;12.048;2023-04-21T01:59:30;14.50;84.60
53643;DHT22;39546;45.534;12.048;2023-04-21T02:05:32;14.50;84.70
53643;DHT22;39546;45.534;12.048;2023-04-21T02:11:34;14.50;84.90
53643;DHT22;39546;45.534;12.048;2023-04-21T02:17:36;14.50;85.00
53643;DHT22;39546;45.534;12.048;2023-04-21T02:23:39;14.50;85.10
53643;DHT22;39546;45.534;12.048;2023-04-21T02:29:48;14.40;85.20
53643;DHT22;39546;45.534;12.048;2023-04-21T02:35:50;14.40;85.20
53643;DHT22;39546;45.534;12.048;2023-04-21T02:41:52;14.40;85.00
53643;DHT22;39546;45.534;12.048;2023-04-21T02:47:55;14.40;85.00
53643;DHT22;39546;45.534;12.048;2023-04-21T02:54:02;14.40;84.90
53643;DHT22;39546;45.534;12.048;2023-04-21T03:00:07;14.40;84.90
53643;DHT22;39546;45.534;12.048;2023-04-21T03:06:10;14.30;84.80
53643;DHT22;39546;45.534;12.048;2023-04-21T03:12:13;14.30;84.80
53643;DHT22;39546;45.534;12.048;2023-04-21T03:18:16;14.30;84.80
53643;DHT22;39546;45.534;12.048;2023-04-21T03:24:18;14.30;84.80
53643;DHT22;39546;45.534;12.048;2023-04-21T03:30:21;14.30;84.80
53643;DHT22;39546;45.534;12.048;2023-04-21T03:36:24;14.30;84.70
53643;DHT22;39546;45.534;12.048;2023-04-21T03:42:26;14.30;84.70
53643;DHT22;39546;45.534;12.048;2023-04-21T03:48:31;14.30;84.70
53643;DHT22;39546;45.534;12.048;2023-04-21T03:54:32;14.30;84.70
53643;DHT22;39546;45.534;12.048;2023-04-21T04:00:34;14.30;84.90
53643;DHT22;39546;45.534;12.048;2023-04-21T04:06:37;14.30;84.90
53643;DHT22;39546;45.534;12.048;2023-04-21T04:12:39;14.30;84.90
53643;DHT22;39546;45.534;12.048;2023-04-21T04:18:41;14.20;84.90
53643;DHT22;39546;45.534;12.048;2023-04-21T04:24:43;14.30;84.80
53643;DHT22;39546;45.534;12.048;2023-04-21T04:30:45;14.20;84.70
53643;DHT22;39546;45.534;12.048;2023-04-21T04:36:47;14.20;84.70
53643;DHT22;39546;45.534;12.048;2023-04-21T04:42:50;14.20;84.70
53643;DHT22;39546;45.534;12.048;2023-04-21T04:48:53;14.20;84.80
53643;DHT22;39546;45.534;12.048;2023-04-21T04:55:26;14.20;84.90
53643;DHT22;39546;45.534;12.048;2023-04-21T05:01:56;14.20;85.10
53643;DHT22;39546;45.534;12.048;2023-04-21T05:07:59;14.20;85.20
53643;DHT22;39546;45.534;12.048;2023-04-21T05:14:26;14.20;85.20
53643;DHT22;39546;45.534;12.048;2023-04-21T05:20:28;14.20;85.20
53643;DHT22;39546;45.534;12.048;2023-04-21T05:26:30;14.20;85.30
53643;DHT22;39546;45.534;12.048;2023-04-21T05:32:32;14.30;85.40
53643;DHT22;39546;45.534;12.048;2023-04-21T05:38:35;14.40;85.40
53643;DHT22;39546;45.534;12.048;2023-04-21T05:44:37;14.40;85.40
53643;DHT22;39546;45.534;12.048;2023-04-21T05:50:40;14.40;85.40
53643;DHT22;39546;45.534;12.048;2023-04-21T05:56:42;14.50;85.40
53643;DHT22;39546;45.534;12.048;2023-04-21T06:02:44;14.50;85.30
53643;DHT22;39546;45.534;12.048;2023-04-21T06:08:46;14.60;85.40
53643;DHT22;39546;45.534;12.048;2023-04-21T06:14:48;14.60;85.40
53643;DHT22;39546;45.534;12.048;2023-04-21T06:20:52;14.70;85.30
53643;DHT22;39546;45.534;12.048;2023-04-21T06:26:54;14.70;85.30
53643;DHT22;39546;45.534;12.048;2023-04-21T06:32:57;14.70;85.30
53643;DHT22;39546;45.534;12.048;2023-04-21T06:38:59;14.60;85.40
53643;DHT22;39546;45.534;12.048;2023-04-21T06:45:01;14.80;85.20
53643;DHT22;39546;45.534;12.048;2023-04-21T06:51:03;15.00;85.00
53643;DHT22;39546;45.534;12.048;2023-04-21T06:57:05;15.10;84.80
53643;DHT22;39546;45.534;12.048;2023-04-21T07:03:08;15.10;85.00
53643;DHT22;39546;45.534;12.048;2023-04-21T07:09:10;15.30;85.00
53643;DHT22;39546;45.534;12.048;2023-04-21T07:15:12;15.40;84.50
53643;DHT22;39546;45.534;12.048;2023-04-21T07:21:14;15.40;84.40
53643;DHT22;39546;45.534;12.048;2023-04-21T07:27:16;15.50;84.50
53643;DHT22;39546;45.534;12.048;2023-04-21T07:33:24;15.60;84.30
53643;DHT22;39546;45.534;12.048;2023-04-21T07:39:26;15.70;84.10
53643;DHT22;39546;45.534;12.048;2023-04-21T07:45:29;15.70;83.80
53643;DHT22;39546;45.534;12.048;2023-04-21T07:51:32;15.80;83.50
53643;DHT22;39546;45.534;12.048;2023-04-21T07:57:34;16.00;83.30
53643;DHT22;39546;45.534;12.048;2023-04-21T08:03:39;16.20;82.50
53643;DHT22;39546;45.534;12.048;2023-04-21T08:09:41;16.30;82.60
53643;DHT22;39546;45.534;12.048;2023-04-21T08:15:43;16.40;81.90
53643;DHT22;39546;45.534;12.048;2023-04-21T08:21:45;16.60;82.10
53643;DHT22;39546;45.534;12.048;2023-04-21T08:27:47;16.70;81.80
53643;DHT22;39546;45.534;12.048;2023-04-21T08:33:50;16.70;81.40
53643;DHT22;39546;45.534;12.048;2023-04-21T08:39:52;16.80;82.10
53643;DHT22;39546;45.534;12.048;2023-04-21T08:45:55;16.80;81.90
53643;DHT22;39546;45.534;12.048;2023-04-21T08:51:59;16.90;81.30
53643;DHT22;39546;45.534;12.048;2023-04-21T08:58:04;17.10;80.50
53643;DHT22;39546;45.534;12.048;2023-04-21T09:04:17;17.20;80.00
53643;DHT22;39546;45.534;12.048;2023-04-21T09:10:22;17.30;79.70
53643;DHT22;39546;45.534;12.048;2023-04-21T09:16:30;17.30;78.50
53643;DHT22;39546;45.534;12.048;2023-04-21T09:22:37;17.40;77.90
53643;DHT22;39546;45.534;12.048;2023-04-21T09:28:43;17.60;77.90
53643;DHT22;39546;45.534;12.048;2023-04-21T09:34:46;17.70;77.90
53643;DHT22;39546;45.534;12.048;2023-04-21T09:40:58;17.80;77.70
53643;DHT22;39546;45.534;12.048;2023-04-21T09:47:00;17.90;77.60
53643;DHT22;39546;45.534;12.048;2023-04-21T09:53:05;18.10;76.50
53643;DHT22;39546;45.534;12.048;2023-04-21T09:59:13;18.20;76.60
53643;DHT22;39546;45.534;12.048;2023-04-21T10:05:17;18.30;75.80
53643;DHT22;39546;45.534;12.048;2023-04-21T10:11:19;18.30;76.20
53643;DHT22;39546;45.534;12.048;2023-04-21T10:17:24;18.20;76.10
53643;DHT22;39546;45.534;12.048;2023-04-21T10:23:27;18.30;76.50
53643;DHT22;39546;45.534;12.048;2023-04-21T10:29:31;18.30;75.70
53643;DHT22;39546;45.534;12.048;2023-04-21T10:35:59;18.60;76.10
53643;DHT22;39546;45.534;12.048;2023-04-21T10:42:23;18.80;76.00
53643;DHT22;39546;45.534;12.048;2023-04-21T10:48:25;18.80;74.90
53643;DHT22;39546;45.534;12.048;2023-04-21T10:54:42;19.00;75.30
53643;DHT22;39546;45.534;12.048;2023-04-21T11:00:46;19.10;73.70
53643;DHT22;39546;45.534;12.048;2023-04-21T11:13:07;19.50;74.00
53643;DHT22;39546;45.534;12.048;2023-04-21T11:19:09;19.90;73.20
53643;DHT22;39546;45.534;12.048;2023-04-21T11:25:18;20.40;71.00
53643;DHT22;39546;45.534;12.048;2023-04-21T11:31:20;20.80;69.90
53643;DHT22;39546;45.534;12.048;2023-04-21T11:37:24;21.10;69.00
53643;DHT22;39546;45.534;12.048;2023-04-21T11:43:27;21.30;69.00
53643;DHT22;39546;45.534;12.048;2023-04-21T11:49:29;21.40;69.30
53643;DHT22;39546;45.534;12.048;2023-04-21T11:55:33;21.50;67.00
53643;DHT22;39546;45.534;12.048;2023-04-21T12:01:51;21.80;64.40
53643;DHT22;39546;45.534;12.048;2023-04-21T12:07:54;21.90;62.90
53643;DHT22;39546;45.534;12.048;2023-04-21T12:13:57;22.20;61.80
53643;DHT22;39546;45.534;12.048;2023-04-21T12:20:05;22.40;60.80
53643;DHT22;39546;45.534;12.048;2023-04-21T12:26:08;22.70;60.10
53643;DHT22;39546;45.534;12.048;2023-04-21T12:32:10;22.70;59.30
53643;DHT22;39546;45.534;12.048;2023-04-21T12:38:13;22.80;59.00
53643;DHT22;39546;45.534;12.048;2023-04-21T12:44:15;22.90;59.20
53643;DHT22;39546;45.534;12.048;2023-04-21T12:50:17;22.80;61.30
53643;DHT22;39546;45.534;12.048;2023-04-21T12:56:19;22.70;61.40
53643;DHT22;39546;45.534;12.048;2023-04-21T13:02:22;22.60;61.80
53643;DHT22;39546;45.534;12.048;2023-04-21T13:08:24;22.00;62.80
53643;DHT22;39546;45.534;12.048;2023-04-21T13:14:26;21.80;63.30
53643;DHT22;39546;45.534;12.048;2023-04-21T13:20:29;21.80;62.80
53643;DHT22;39546;45.534;12.048;2023-04-21T13:26:32;22.20;62.00
53643;DHT22;39546;45.534;12.048;2023-04-21T13:32:36;22.60;60.60
53643;DHT22;39546;45.534;12.048;2023-04-21T13:39:03;22.80;58.60
53643;DHT22;39546;45.534;12.048;2023-04-21T13:45:06;22.30;59.70
53643;DHT22;39546;45.534;12.048;2023-04-21T13:51:08;22.00;60.70
53643;DHT22;39546;45.534;12.048;2023-04-21T13:57:11;21.80;61.70
53643;DHT22;39546;45.534;12.048;2023-04-21T14:03:13;21.70;61.80
53643;DHT22;39546;45.534;12.048;2023-04-21T14:09:15;21.70;62.10
53643;DHT22;39546;45.534;12.048;2023-04-21T14:15:17;21.50;62.20
53643;DHT22;39546;45.534;12.048;2023-04-21T14:21:19;21.50;63.40
53643;DHT22;39546;45.534;12.048;2023-04-21T14:27:21;21.50;62.60
53643;DHT22;39546;45.534;12.048;2023-04-21T14:33:23;21.60;62.10
53643;DHT22;39546;45.534;12.048;2023-04-21T14:39:25;21.60;61.50
53643;DHT22;39546;45.534;12.048;2023-04-21T14:45:28;22.00;60.60
53643;DHT22;39546;45.534;12.048;2023-04-21T14:51:30;22.60;59.60
53643;DHT22;39546;45.534;12.048;2023-04-21T14:57:33;23.20;58.90
53643;DHT22;39546;45.534;12.048;2023-04-21T15:03:35;23.40;57.10
53643;DHT22;39546;45.534;12.048;2023-04-21T15:09:37;23.30;56.60
53643;DHT22;39546;45.534;12.048;2023-04-21T15:15:40;23.30;56.70
53643;DHT22;39546;45.534;12.048;2023-04-21T15:21:42;23.50;56.00
53643;DHT22;39546;45.534;12.048;2023-04-21T15:27:44;23.70;56.10
53643;DHT22;39546;45.534;12.048;2023-04-21T15:33:47;23.80;54.50
53643;DHT22;39546;45.534;12.048;2023-04-21T15:39:49;23.80;54.50
53643;DHT22;39546;45.534;12.048;2023-04-21T15:45:51;23.90;54.00
53643;DHT22;39546;45.534;12.048;2023-04-21T15:51:54;24.10;53.70
53643;DHT22;39546;45.534;12.048;2023-04-21T15:57:56;24.30;53.00
53643;DHT22;39546;45.534;12.048;2023-04-21T16:03:58;24.30;53.00
53643;DHT22;39546;45.534;12.048;2023-04-21T16:10:00;23.70;54.10
53643;DHT22;39546;45.534;12.048;2023-04-21T16:16:02;23.20;55.30
53643;DHT22;39546;45.534;12.048;2023-04-21T16:22:04;22.80;55.60
53643;DHT22;39546;45.534;12.048;2023-04-21T16:28:07;22.70;56.20
53643;DHT22;39546;45.534;12.048;2023-04-21T16:34:10;22.60;55.70
53643;DHT22;39546;45.534;12.048;2023-04-21T16:40:14;22.20;56.60
53643;DHT22;39546;45.534;12.048;2023-04-21T16:46:16;22.00;57.20
53643;DHT22;39546;45.534;12.048;2023-04-21T16:52:18;22.30;56.80
53643;DHT22;39546;45.534;12.048;2023-04-21T16:58:20;22.30;56.30
53643;DHT22;39546;45.534;12.048;2023-04-21T17:04:25;22.00;57.20
53643;DHT22;39546;45.534;12.048;2023-04-21T17:10:27;21.80;57.40
53643;DHT22;39546;45.534;12.048;2023-04-21T17:16:29;21.50;58.00
53643;DHT22;39546;45.534;12.048;2023-04-21T17:22:31;21.30;58.40
53643;DHT22;39546;45.534;12.048;2023-04-21T17:28:33;21.20;58.90
53643;DHT22;39546;45.534;12.048;2023-04-21T17:34:36;21.10;59.10
53643;DHT22;39546;45.534;12.048;2023-04-21T17:40:38;20.90;59.20
53643;DHT22;39546;45.534;12.048;2023-04-21T17:46:41;20.80;59.40
53643;DHT22;39546;45.534;12.048;2023-04-21T17:52:44;20.80;59.70
53643;DHT22;39546;45.534;12.048;2023-04-21T17:58:49;20.70;60.00
53643;DHT22;39546;45.534;12.048;2023-04-21T18:04:54;20.60;60.40
53643;DHT22;39546;45.534;12.048;2023-04-21T18:10:57;20.50;60.60
53643;DHT22;39546;45.534;12.048;2023-04-21T18:16:59;20.40;61.00
53643;DHT22;39546;45.534;12.048;2023-04-21T18:23:02;20.30;61.40
53643;DHT22;39546;45.534;12.048;2023-04-21T18:29:05;20.30;61.70
53643;DHT22;39546;45.534;12.048;2023-04-21T18:35:07;20.20;62.10
53643;DHT22;39546;45.534;12.048;2023-04-21T18:41:10;20.00;63.40
53643;DHT22;39546;45.534;12.048;2023-04-21T18:47:12;19.90;64.00
53643;DHT22;39546;45.534;12.048;2023-04-21T18:53:16;19.80;64.20
53643;DHT22;39546;45.534;12.048;2023-04-21T18:59:18;19.80;64.70
53643;DHT22;39546;45.534;12.048;2023-04-21T19:05:23;19.70;65.20
53643;DHT22;39546;45.534;12.048;2023-04-21T19:11:25;19.60;66.30
53643;DHT22;39546;45.534;12.048;2023-04-21T19:17:30;19.40;67.50
53643;DHT22;39546;45.534;12.048;2023-04-21T19:23:32;19.30;67.60
53643;DHT22;39546;45.534;12.048;2023-04-21T19:29:34;19.30;67.70
53643;DHT22;39546;45.534;12.048;2023-04-21T19:35:37;19.20;68.00
53643;DHT22;39546;45.534;12.048;2023-04-21T19:41:40;19.10;68.20
53643;DHT22;39546;45.534;12.048;2023-04-21T19:47:42;19.00;68.60
53643;DHT22;39546;45.534;12.048;2023-04-21T19:53:44;18.90;69.80
53643;DHT22;39546;45.534;12.048;2023-04-21T19:59:46;18.80;70.20
53643;DHT22;39546;45.534;12.048;2023-04-21T20:05:49;18.80;70.20
53643;DHT22;39546;45.534;12.048;2023-04-21T20:11:52;18.70;70.20
53643;DHT22;39546;45.534;12.048;2023-04-21T20:17:54;18.70;70.30
53643;DHT22;39546;45.534;12.048;2023-04-21T20:23:56;18.60;70.40
53643;DHT22;39546;45.534;12.048;2023-04-21T20:29:59;18.50;70.70
53643;DHT22;39546;45.534;12.048;2023-04-21T20:36:01;18.50;71.00
53643;DHT22;39546;45.534;12.048;2023-04-21T20:42:08;18.40;71.10
53643;DHT22;39546;45.534;12.048;2023-04-21T20:48:10;18.30;71.30
53643;DHT22;39546;45.534;12.048;2023-04-21T20:54:13;18.20;71.70
53643;DHT22;39546;45.534;12.048;2023-04-21T21:00:15;18.10;72.10
53643;DHT22;39546;45.534;12.048;2023-04-21T21:06:18;18.10;72.30
53643;DHT22;39546;45.534;12.048;2023-04-21T21:12:20;17.90;72.30
53643;DHT22;39546;45.534;12.048;2023-04-21T21:18:23;17.70;73.50
53643;DHT22;39546;45.534;12.048;2023-04-21T21:24:25;17.80;73.40
53643;DHT22;39546;45.534;12.048;2023-04-21T21:30:29;17.90;73.20
53643;DHT22;39546;45.534;12.048;2023-04-21T21:36:31;17.90;73.10
53643;DHT22;39546;45.534;12.048;2023-04-21T21:42:34;18.00;73.30
53643;DHT22;39546;45.534;12.048;2023-04-21T21:48:36;18.00;73.20
53643;DHT22;39546;45.534;12.048;2023-04-21T21:54:38;18.00;73.30
53643;DHT22;39546;45.534;12.048;2023-04-21T22:00:40;17.90;73.40
53643;DHT22;39546;45.534;12.048;2023-04-21T22:06:43;17.80;73.60
53643;DHT22;39546;45.534;12.048;2023-04-21T22:12:46;17.80;73.70
53643;DHT22;39546;45.534;12.048;2023-04-21T22:18:48;17.80;73.90
53643;DHT22;39546;45.534;12.048;2023-04-21T22:24:51;17.80;74.00
53643;DHT22;39546;45.534;12.048;2023-04-21T22:30:53;17.70;74.20
53643;DHT22;39546;45.534;12.048;2023-04-21T22:36:55;17.70;74.20
53643;DHT22;39546;45.534;12.048;2023-04-21T22:42:58;17.60;74.40
53643;DHT22;39546;45.534;12.048;2023-04-21T22:49:00;17.40;74.50
53643;DHT22;39546;45.534;12.048;2023-04-21T22:55:08;17.40;74.50
53643;DHT22;39546;45.534;12.048;2023-04-21T23:01:10;17.30;74.70
53643;DHT22;39546;45.534;12.048;2023-04-21T23:07:12;17.30;74.70
53643;DHT22;39546;45.534;12.048;2023-04-21T23:13:14;17.30;74.90
53643;DHT22;39546;45.534;12.048;2023-04-21T23:19:21;17.30;75.40
53643;DHT22;39546;45.534;12.048;2023-04-21T23:25:25;17.30;75.50
53643;DHT22;39546;45.534;12.048;2023-04-21T23:31:27;17.20;75.90
53643;DHT22;39546;45.534;12.048;2023-04-21T23:37:31;16.90;76.50
53643;DHT22;39546;45.534;12.048;2023-04-21T23:43:54;16.80;76.80
53643;DHT22;39546;45.534;12.048;2023-04-21T23:49:56;16.80;76.80
53643;DHT22;39546;45.534;12.048;2023-04-21T23:56:08;16.60;76.70
